createdAt,value
2023-02-05T00:02:04.142Z,100152.75
2023-02-05T00:07:26.307Z,100156.73
2023-02-05T00:12:48.676Z,100164.17
2023-02-05T00:18:10.679Z,100165.36
2023-02-05T00:23:33.505Z,100170.27
2023-02-05T00:28:55.730Z,100170.49
2023-02-05T00:34:17.959Z,100162.62
2023-02-05T00:39:39.934Z,100161.45
2023-02-05T00:45:02.120Z,100161.02
2023-02-05T00:50:24.346Z,100164.27
2023-02-05T00:55:45.875Z,100168.81
2023-02-05T01:01:08.272Z,100175.73
2023-02-05T01:06:33.247Z,100175.63
2023-02-05T01:11:55.182Z,100168.14
2023-02-05T01:17:17.206Z,100168.46
2023-02-05T01:22:39.341Z,100171.23
2023-02-05T01:28:01.613Z,100170.59
2023-02-05T01:33:23.417Z,100176.05
2023-02-05T01:38:45.294Z,100173.42
2023-02-05T01:44:13.705Z,100168.36
2023-02-05T01:49:41.634Z,100174.23
2023-02-05T01:55:04.353Z,100165.89
2023-02-05T02:00:26.649Z,100171.13
2023-02-05T02:05:48.519Z,100173.47
2023-02-05T02:11:11.348Z,100171.84
2023-02-05T02:16:35.805Z,100174.19
2023-02-05T02:22:03.643Z,100176.98
2023-02-05T02:27:46.302Z,100182.73
2023-02-05T02:33:33.515Z,100189.33
2023-02-05T02:39:09.461Z,100186.70
2023-02-05T02:44:54.245Z,100187.67
2023-02-05T02:50:22.925Z,100196.82
2023-02-05T02:55:46.585Z,100195.89
2023-02-05T03:01:10.233Z,100186.48
2023-02-05T03:06:33.551Z,100178.60
2023-02-05T03:11:55.599Z,100183.84
2023-02-05T03:17:19.968Z,100178.10
2023-02-05T03:22:42.926Z,100183.35
2023-02-05T03:28:04.858Z,100185.27
2023-02-05T03:33:39.737Z,100188.52
2023-02-05T03:39:08.844Z,100192.60
2023-02-05T03:44:49.442Z,100195.86
2023-02-05T03:50:22.110Z,100189.63
2023-02-05T03:55:48.232Z,100192.04
2023-02-05T04:01:11.324Z,100197.80
2023-02-05T04:06:33.835Z,100201.73
2023-02-05T04:11:57.039Z,100206.55
2023-02-05T04:17:19.265Z,100211.09
2023-02-05T04:22:42.939Z,100205.96
2023-02-05T04:28:06.434Z,100203.77
2023-02-05T04:33:28.638Z,100211.26
2023-02-05T04:38:50.629Z,100217.04
2023-02-05T04:44:13.808Z,100219.88
2023-02-05T04:49:35.978Z,100226.30
2023-02-05T04:54:57.824Z,100234.13
2023-02-05T05:00:20.255Z,100246.62
2023-02-05T05:05:42.285Z,100246.41
2023-02-05T05:11:09.116Z,100252.34
2023-02-05T05:16:31.101Z,100249.59
2023-02-05T05:21:53.327Z,100252.92
2023-02-05T05:27:16.731Z,100261.14
2023-02-05T05:32:38.795Z,100268.27
2023-02-05T05:38:01.279Z,100271.77
2023-02-05T05:43:45.031Z,100275.84
2023-02-05T05:49:10.116Z,100283.23
2023-02-05T05:54:32.180Z,100288.77
2023-02-05T05:59:54.477Z,100297.14
2023-02-05T06:05:16.371Z,100303.86
2023-02-05T06:10:38.479Z,100314.97
2023-02-05T06:16:00.312Z,100328.59
2023-02-05T06:21:22.629Z,100333.50
2023-02-05T06:26:44.294Z,100339.11
2023-02-05T06:32:08.480Z,100350.89
2023-02-05T06:37:46.206Z,100358.81
2023-02-05T06:43:08.778Z,100366.06
2023-02-05T06:48:30.994Z,100360.79
2023-02-05T06:53:55.265Z,100357.52
2023-02-05T06:59:16.985Z,100355.42
2023-02-05T07:04:38.747Z,100362.05
2023-02-05T07:10:01.088Z,100372.29
2023-02-05T07:15:23.178Z,100370.85
2023-02-05T07:20:45.241Z,100378.50
2023-02-05T07:26:11.917Z,100375.25
2023-02-05T07:31:33.799Z,100379.92
2023-02-05T07:36:55.688Z,100390.70
2023-02-05T07:42:17.492Z,100394.52
2023-02-05T07:47:43.187Z,100396.88
2023-02-05T07:53:05.356Z,100407.99
2023-02-05T07:58:27.406Z,100407.66
2023-02-05T08:03:49.782Z,100411.84
2023-02-05T08:09:11.956Z,100422.06
2023-02-05T08:14:33.730Z,100437.77
2023-02-05T08:19:55.558Z,100444.61
2023-02-05T08:25:19.924Z,100449.17
2023-02-05T08:30:42.144Z,100447.24
2023-02-05T08:36:04.438Z,100445.36
2023-02-05T08:41:26.336Z,100445.29
2023-02-05T08:46:50.371Z,100452.69
2023-02-05T08:52:12.241Z,100458.77
2023-02-05T08:57:34.746Z,100456.29
2023-02-05T09:02:56.419Z,100457.14
2023-02-05T09:08:18.146Z,100460.24
2023-02-05T09:13:40.846Z,100464.41
2023-02-05T09:19:09.165Z,100473.32
2023-02-05T09:24:31.140Z,100470.97
2023-02-05T09:29:52.974Z,100481.35
2023-02-05T09:35:18.165Z,100482.22
2023-02-05T09:40:48.763Z,100484.90
2023-02-05T09:46:40.595Z,100482.77
2023-02-05T09:52:23.061Z,100486.45
2023-02-05T09:57:45.458Z,100485.36
2023-02-05T10:03:22.235Z,100482.45
2023-02-05T10:08:51.189Z,100473.27
2023-02-05T10:14:31.304Z,100472.02
2023-02-05T10:20:07.404Z,100470.21
2023-02-05T10:25:38.128Z,100470.61
2023-02-05T10:31:05.608Z,100470.17
2023-02-05T10:36:27.865Z,100473.11
2023-02-05T10:41:57.542Z,100473.21
2023-02-05T10:47:40.195Z,100472.23
2023-02-05T10:53:20.950Z,100456.85
2023-02-05T10:58:57.433Z,100449.48
2023-02-05T11:04:39.879Z,100443.91
2023-02-05T11:10:26.362Z,100436.08
2023-02-05T11:16:02.926Z,100430.76
2023-02-05T11:21:24.814Z,100432.61
2023-02-05T11:26:49.501Z,100434.54
2023-02-05T11:32:23.385Z,100431.64
2023-02-05T11:37:47.107Z,100427.67
2023-02-05T11:43:31.570Z,100424.37
2023-02-05T11:48:53.553Z,100419.35
2023-02-05T11:54:32.957Z,100417.85
2023-02-05T11:59:56.087Z,100417.37
2023-02-05T12:05:27.032Z,100420.45
2023-02-05T12:11:03.009Z,100419.76
2023-02-05T12:16:41.917Z,100427.42
2023-02-05T12:22:41.165Z,100425.89
2023-02-05T12:28:21.153Z,100424.55
2023-02-05T12:34:14.110Z,100419.79
2023-02-05T12:39:45.751Z,100419.45
2023-02-05T12:45:28.053Z,100419.13
2023-02-05T12:51:08.848Z,100419.23
2023-02-05T12:56:44.892Z,100425.46
2023-02-05T13:02:32.764Z,100429.86
2023-02-05T13:08:00.136Z,100425.70
2023-02-05T13:13:35.743Z,100419.80
2023-02-05T13:19:32.945Z,100415.97
2023-02-05T13:25:24.724Z,100416.20
2023-02-05T13:30:56.186Z,100415.91
2023-02-05T13:36:24.685Z,100414.81
2023-02-05T13:42:06.981Z,100415.48
2023-02-05T13:47:35.231Z,100413.16
2023-02-05T13:53:04.271Z,100410.76
2023-02-05T13:58:35.006Z,100405.85
2023-02-05T14:04:27.982Z,100399.61
2023-02-05T14:09:56.520Z,100395.63
2023-02-05T14:15:23.482Z,100400.23
2023-02-05T14:20:45.938Z,100400.73
2023-02-05T14:26:11.970Z,100398.76
2023-02-05T14:31:49.744Z,100407.79
2023-02-05T14:37:28.472Z,100409.98
2023-02-05T14:42:57.131Z,100407.65
2023-02-05T14:48:29.382Z,100415.91
2023-02-05T14:54:03.228Z,100410.31
2023-02-05T14:59:29.890Z,100408.98
2023-02-05T15:04:52.889Z,100418.95
2023-02-05T15:10:21.655Z,100420.79
2023-02-05T15:16:12.116Z,100421.86
2023-02-05T15:21:54.898Z,100418.92
2023-02-05T15:27:26.826Z,100412.44
2023-02-05T15:32:52.684Z,100417.13
2023-02-05T15:38:29.597Z,100418.36
2023-02-05T15:44:01.212Z,100415.13
2023-02-05T15:49:30.864Z,100421.23
2023-02-05T15:54:57.544Z,100429.09
2023-02-05T16:00:22.652Z,100429.15
2023-02-05T16:05:52.178Z,100434.88
2023-02-05T16:11:30.413Z,100434.12
2023-02-05T16:17:20.911Z,100438.55
2023-02-05T16:22:48.804Z,100447.28
2023-02-05T16:28:24.084Z,100454.02
2023-02-05T16:33:59.364Z,100457.09
2023-02-05T16:39:32.320Z,100457.04
2023-02-05T16:45:10.003Z,100470.64
2023-02-05T16:50:38.754Z,100484.09
2023-02-05T16:56:13.843Z,100484.66
2023-02-05T17:01:38.469Z,100482.04
2023-02-05T17:07:01.736Z,100482.87
2023-02-05T17:12:33.172Z,100481.62
2023-02-05T17:18:25.815Z,100480.09
2023-02-05T17:23:50.477Z,100478.88
2023-02-05T17:29:15.389Z,100474.23
2023-02-05T17:34:37.018Z,100483.38
2023-02-05T17:39:58.957Z,100482.48
2023-02-05T17:45:24.792Z,100490.89
2023-02-05T17:50:46.724Z,100493.27
2023-02-05T17:56:09.050Z,100492.19
2023-02-05T18:01:31.179Z,100496.77
2023-02-05T18:06:54.215Z,100499.76
2023-02-05T18:12:16.344Z,100507.27
2023-02-05T18:17:37.973Z,100512.48
2023-02-05T18:23:00.407Z,100523.53
2023-02-05T18:28:22.334Z,100524.44
2023-02-05T18:33:44.327Z,100526.95
2023-02-05T18:39:06.203Z,100528.75
2023-02-05T18:44:28.423Z,100524.79
2023-02-05T18:49:50.750Z,100527.97
2023-02-05T18:55:12.785Z,100532.73
2023-02-05T19:00:35.099Z,100529.08
2023-02-05T19:05:57.046Z,100528.46
2023-02-05T19:11:22.877Z,100532.41
2023-02-05T19:16:44.912Z,100536.29
2023-02-05T19:22:10.950Z,100528.44
2023-02-05T19:27:32.778Z,100528.73
2023-02-05T19:32:54.717Z,100521.61
2023-02-05T19:38:19.100Z,100523.03
2023-02-05T19:43:50.201Z,100527.75
2023-02-05T19:49:18.340Z,100525.71
2023-02-05T19:54:40.596Z,100523.18
2023-02-05T20:00:02.585Z,100516.80
2023-02-05T20:05:36.705Z,100517.45
2023-02-05T20:11:02.342Z,100524.64
2023-02-05T20:16:27.554Z,100536.58
2023-02-05T20:21:49.611Z,100550.41
2023-02-05T20:27:11.347Z,100549.16
2023-02-05T20:32:33.363Z,100547.65
2023-02-05T20:38:00.861Z,100546.70
2023-02-05T20:43:23.743Z,100559.54
2023-02-05T20:48:46.188Z,100570.43
2023-02-05T20:54:10.614Z,100574.86
2023-02-05T20:59:33.246Z,100580.79
2023-02-05T21:04:54.979Z,100582.30
2023-02-05T21:10:19.643Z,100585.92
2023-02-05T21:15:42.050Z,100589.61
2023-02-05T21:21:30.743Z,100595.71
2023-02-05T21:26:53.007Z,100606.80
2023-02-05T21:32:16.516Z,100614.88
2023-02-05T21:37:39.289Z,100617.33
2023-02-05T21:43:01.003Z,100627.81
2023-02-05T21:48:23.000Z,100633.53
2023-02-05T21:53:45.120Z,100632.48
2023-02-05T21:59:07.395Z,100638.95
2023-02-05T22:04:29.478Z,100640.62
2023-02-05T22:09:51.248Z,100647.48
2023-02-05T22:15:16.413Z,100652.59
2023-02-05T22:20:38.558Z,100647.95
2023-02-05T22:26:00.461Z,100649.98
2023-02-05T22:31:26.331Z,100652.66
2023-02-05T22:36:48.315Z,100661.96
2023-02-05T22:42:10.356Z,100669.75
2023-02-05T22:47:32.489Z,100679.12
2023-02-05T22:52:54.210Z,100673.38
2023-02-05T22:58:15.940Z,100673.21
2023-02-05T23:03:38.721Z,100674.73
2023-02-05T23:09:12.341Z,100681.66
2023-02-05T23:14:34.188Z,100686.25
2023-02-05T23:19:56.096Z,100695.15
2023-02-05T23:25:18.223Z,100687.81
2023-02-05T23:30:41.494Z,100690.52
2023-02-05T23:36:04.494Z,100671.16
2023-02-05T23:41:36.462Z,100678.21
2023-02-05T23:46:58.993Z,100675.02
2023-02-05T23:52:22.129Z,100669.73
2023-02-05T23:57:44.155Z,100662.73
